sensor_id;sensor_type;location;lat;lon;timestamp;P1;durP1;ratioP1;P2;durP2;ratioP2
51824;SDS011;37879;52.986;6.282;2023-08-08T00:01:29;2.17;;;1.23;;
51824;SDS011;37879;52.986;6.282;2023-08-08T00:03:54;4.72;;;1.85;;
51824;SDS011;37879;52.986;6.282;2023-08-08T00:06:20;2.58;;;1.55;;
51824;SDS011;37879;52.986;6.282;2023-08-08T00:08:45;5.05;;;2.35;;
51824;SDS011;37879;52.986;6.282;2023-08-08T00:11:11;3.58;;;2.30;;
51824;SDS011;37879;52.986;6.282;2023-08-08T00:13:37;4.82;;;2.25;;
51824;SDS011;37879;52.986;6.282;2023-08-08T00:16:02;4.85;;;2.28;;
51824;SDS011;37879;52.986;6.282;2023-08-08T00:18:28;4.70;;;2.35;;
51824;SDS011;37879;52.986;6.282;2023-08-08T00:20:54;8.57;;;2.28;;
51824;SDS011;37879;52.986;6.282;2023-08-08T00:23:20;2.97;;;1.40;;
51824;SDS011;37879;52.986;6.282;2023-08-08T00:25:45;3.42;;;1.70;;
51824;SDS011;37879;52.986;6.282;2023-08-08T00:28:15;4.40;;;1.50;;
51824;SDS011;37879;52.986;6.282;2023-08-08T00:30:41;3.78;;;1.83;;
51824;SDS011;37879;52.986;6.282;2023-08-08T00:33:07;5.78;;;1.80;;
51824;SDS011;37879;52.986;6.282;2023-08-08T00:35:33;3.33;;;1.70;;
51824;SDS011;37879;52.986;6.282;2023-08-08T00:37:58;5.18;;;2.25;;
51824;SDS011;37879;52.986;6.282;2023-08-08T00:40:24;4.68;;;1.85;;
51824;SDS011;37879;52.986;6.282;2023-08-08T00:42:49;4.47;;;1.50;;
51824;SDS011;37879;52.986;6.282;2023-08-08T00:45:15;2.78;;;1.33;;
51824;SDS011;37879;52.986;6.282;2023-08-08T00:47:41;3.20;;;1.80;;
51824;SDS011;37879;52.986;6.282;2023-08-08T00:50:06;4.22;;;1.70;;
51824;SDS011;37879;52.986;6.282;2023-08-08T00:52:33;5.68;;;1.83;;
51824;SDS011;37879;52.986;6.282;2023-08-08T00:55:00;3.65;;;1.73;;
51824;SDS011;37879;52.986;6.282;2023-08-08T00:57:26;3.90;;;2.05;;
51824;SDS011;37879;52.986;6.282;2023-08-08T00:59:52;3.33;;;1.67;;
51824;SDS011;37879;52.986;6.282;2023-08-08T01:02:18;4.63;;;1.98;;
51824;SDS011;37879;52.986;6.282;2023-08-08T01:04:44;3.47;;;1.90;;
51824;SDS011;37879;52.986;6.282;2023-08-08T01:10:15;3.42;;;1.80;;
51824;SDS011;37879;52.986;6.282;2023-08-08T01:12:51;2.83;;;1.75;;
51824;SDS011;37879;52.986;6.282;2023-08-08T01:15:20;5.07;;;2.00;;
51824;SDS011;37879;52.986;6.282;2023-08-08T01:17:47;4.50;;;2.33;;
51824;SDS011;37879;52.986;6.282;2023-08-08T01:20:13;5.18;;;1.33;;
51824;SDS011;37879;52.986;6.282;2023-08-08T01:22:50;3.33;;;1.80;;
51824;SDS011;37879;52.986;6.282;2023-08-08T01:25:23;3.53;;;1.50;;
51824;SDS011;37879;52.986;6.282;2023-08-08T01:27:49;6.47;;;1.80;;
51824;SDS011;37879;52.986;6.282;2023-08-08T01:30:15;5.03;;;2.25;;
51824;SDS011;37879;52.986;6.282;2023-08-08T01:32:40;2.10;;;1.42;;
51824;SDS011;37879;52.986;6.282;2023-08-08T01:35:06;4.55;;;2.05;;
51824;SDS011;37879;52.986;6.282;2023-08-08T01:37:35;6.45;;;1.73;;
51824;SDS011;37879;52.986;6.282;2023-08-08T01:40:05;3.50;;;2.10;;
51824;SDS011;37879;52.986;6.282;2023-08-08T01:42:31;7.18;;;3.05;;
51824;SDS011;37879;52.986;6.282;2023-08-08T01:44:58;4.30;;;1.70;;
51824;SDS011;37879;52.986;6.282;2023-08-08T01:47:24;7.55;;;1.70;;
51824;SDS011;37879;52.986;6.282;2023-08-08T01:49:50;4.45;;;1.90;;
51824;SDS011;37879;52.986;6.282;2023-08-08T01:52:16;4.53;;;1.80;;
51824;SDS011;37879;52.986;6.282;2023-08-08T01:54:41;3.63;;;1.70;;
51824;SDS011;37879;52.986;6.282;2023-08-08T01:57:08;7.97;;;2.38;;
51824;SDS011;37879;52.986;6.282;2023-08-08T01:59:33;4.57;;;2.00;;
51824;SDS011;37879;52.986;6.282;2023-08-08T02:01:59;6.93;;;1.98;;
51824;SDS011;37879;52.986;6.282;2023-08-08T02:04:25;10.35;;;2.90;;
51824;SDS011;37879;52.986;6.282;2023-08-08T02:06:50;3.78;;;2.00;;
51824;SDS011;37879;52.986;6.282;2023-08-08T02:09:16;5.40;;;2.65;;
51824;SDS011;37879;52.986;6.282;2023-08-08T02:11:42;6.45;;;2.50;;
51824;SDS011;37879;52.986;6.282;2023-08-08T02:14:07;3.95;;;1.88;;
51824;SDS011;37879;52.986;6.282;2023-08-08T02:16:33;3.45;;;1.90;;
51824;SDS011;37879;52.986;6.282;2023-08-08T02:18:59;3.97;;;2.38;;
51824;SDS011;37879;52.986;6.282;2023-08-08T02:21:25;3.67;;;2.53;;
51824;SDS011;37879;52.986;6.282;2023-08-08T02:23:51;3.83;;;2.20;;
51824;SDS011;37879;52.986;6.282;2023-08-08T02:26:17;3.72;;;1.83;;
51824;SDS011;37879;52.986;6.282;2023-08-08T02:28:42;3.53;;;2.13;;
51824;SDS011;37879;52.986;6.282;2023-08-08T02:31:08;5.50;;;2.22;;
51824;SDS011;37879;52.986;6.282;2023-08-08T02:33:34;3.28;;;2.10;;
51824;SDS011;37879;52.986;6.282;2023-08-08T02:36:00;4.97;;;1.83;;
51824;SDS011;37879;52.986;6.282;2023-08-08T02:38:25;3.75;;;2.10;;
51824;SDS011;37879;52.986;6.282;2023-08-08T02:40:51;2.53;;;1.80;;
51824;SDS011;37879;52.986;6.282;2023-08-08T02:43:18;3.95;;;1.70;;
51824;SDS011;37879;52.986;6.282;2023-08-08T02:45:43;2.70;;;1.70;;
51824;SDS011;37879;52.986;6.282;2023-08-08T02:48:09;4.05;;;1.52;;
51824;SDS011;37879;52.986;6.282;2023-08-08T02:50:35;5.57;;;2.20;;
51824;SDS011;37879;52.986;6.282;2023-08-08T02:53:00;3.08;;;1.50;;
51824;SDS011;37879;52.986;6.282;2023-08-08T02:55:26;3.08;;;1.55;;
51824;SDS011;37879;52.986;6.282;2023-08-08T02:57:52;3.75;;;1.92;;
51824;SDS011;37879;52.986;6.282;2023-08-08T03:00:17;2.15;;;1.30;;
51824;SDS011;37879;52.986;6.282;2023-08-08T03:02:43;5.38;;;1.92;;
51824;SDS011;37879;52.986;6.282;2023-08-08T03:05:08;3.60;;;1.40;;
51824;SDS011;37879;52.986;6.282;2023-08-08T03:07:34;4.78;;;1.95;;
51824;SDS011;37879;52.986;6.282;2023-08-08T03:10:00;4.00;;;1.70;;
51824;SDS011;37879;52.986;6.282;2023-08-08T03:12:26;5.80;;;2.08;;
51824;SDS011;37879;52.986;6.282;2023-08-08T03:14:51;5.88;;;2.53;;
51824;SDS011;37879;52.986;6.282;2023-08-08T03:17:18;6.32;;;1.80;;
51824;SDS011;37879;52.986;6.282;2023-08-08T03:19:44;5.18;;;2.28;;
51824;SDS011;37879;52.986;6.282;2023-08-08T03:22:09;3.15;;;1.50;;
51824;SDS011;37879;52.986;6.282;2023-08-08T03:24:35;4.85;;;2.00;;
51824;SDS011;37879;52.986;6.282;2023-08-08T03:27:01;5.18;;;1.38;;
51824;SDS011;37879;52.986;6.282;2023-08-08T03:29:26;4.18;;;1.85;;
51824;SDS011;37879;52.986;6.282;2023-08-08T03:31:52;5.05;;;1.52;;
51824;SDS011;37879;52.986;6.282;2023-08-08T03:34:17;3.20;;;1.55;;
51824;SDS011;37879;52.986;6.282;2023-08-08T03:36:43;5.65;;;2.28;;
51824;SDS011;37879;52.986;6.282;2023-08-08T03:39:09;5.05;;;1.70;;
51824;SDS011;37879;52.986;6.282;2023-08-08T03:41:34;5.03;;;1.42;;
51824;SDS011;37879;52.986;6.282;2023-08-08T03:44:01;4.35;;;1.67;;
51824;SDS011;37879;52.986;6.282;2023-08-08T03:46:28;6.43;;;1.77;;
51824;SDS011;37879;52.986;6.282;2023-08-08T03:48:54;4.55;;;2.05;;
51824;SDS011;37879;52.986;6.282;2023-08-08T03:51:19;6.00;;;1.88;;
51824;SDS011;37879;52.986;6.282;2023-08-08T03:53:45;10.80;;;1.83;;
51824;SDS011;37879;52.986;6.282;2023-08-08T03:56:10;6.22;;;1.60;;
51824;SDS011;37879;52.986;6.282;2023-08-08T03:58:37;7.00;;;1.25;;
51824;SDS011;37879;52.986;6.282;2023-08-08T04:01:03;3.42;;;1.33;;
51824;SDS011;37879;52.986;6.282;2023-08-08T04:03:29;4.35;;;1.25;;
51824;SDS011;37879;52.986;6.282;2023-08-08T04:05:54;2.90;;;1.20;;
51824;SDS011;37879;52.986;6.282;2023-08-08T04:08:20;3.10;;;1.40;;
51824;SDS011;37879;52.986;6.282;2023-08-08T04:10:46;10.25;;;2.13;;
51824;SDS011;37879;52.986;6.282;2023-08-08T04:13:12;4.55;;;1.00;;
51824;SDS011;37879;52.986;6.282;2023-08-08T04:15:38;2.55;;;1.17;;
51824;SDS011;37879;52.986;6.282;2023-08-08T04:18:04;3.08;;;1.00;;
51824;SDS011;37879;52.986;6.282;2023-08-08T04:20:32;4.70;;;1.23;;
51824;SDS011;37879;52.986;6.282;2023-08-08T04:22:59;3.22;;;1.00;;
51824;SDS011;37879;52.986;6.282;2023-08-08T04:25:25;5.05;;;1.40;;
51824;SDS011;37879;52.986;6.282;2023-08-08T04:27:51;2.40;;;1.27;;
51824;SDS011;37879;52.986;6.282;2023-08-08T04:30:16;6.20;;;1.67;;
51824;SDS011;37879;52.986;6.282;2023-08-08T04:32:42;3.80;;;1.60;;
51824;SDS011;37879;52.986;6.282;2023-08-08T04:35:08;3.63;;;1.17;;
51824;SDS011;37879;52.986;6.282;2023-08-08T04:37:33;6.95;;;1.90;;
51824;SDS011;37879;52.986;6.282;2023-08-08T04:39:59;3.95;;;1.23;;
51824;SDS011;37879;52.986;6.282;2023-08-08T04:42:25;3.65;;;0.98;;
51824;SDS011;37879;52.986;6.282;2023-08-08T04:44:50;4.57;;;1.25;;
51824;SDS011;37879;52.986;6.282;2023-08-08T04:47:16;3.90;;;1.42;;
51824;SDS011;37879;52.986;6.282;2023-08-08T04:49:41;4.05;;;1.17;;
51824;SDS011;37879;52.986;6.282;2023-08-08T04:52:07;2.95;;;1.08;;
51824;SDS011;37879;52.986;6.282;2023-08-08T04:54:33;4.78;;;1.60;;
51824;SDS011;37879;52.986;6.282;2023-08-08T04:56:58;6.65;;;2.08;;
51824;SDS011;37879;52.986;6.282;2023-08-08T04:59:24;5.13;;;1.40;;
51824;SDS011;37879;52.986;6.282;2023-08-08T05:01:49;2.05;;;1.00;;
51824;SDS011;37879;52.986;6.282;2023-08-08T05:04:16;4.05;;;1.30;;
51824;SDS011;37879;52.986;6.282;2023-08-08T05:06:42;4.60;;;1.17;;
51824;SDS011;37879;52.986;6.282;2023-08-08T05:09:08;4.38;;;0.98;;
51824;SDS011;37879;52.986;6.282;2023-08-08T05:11:34;4.03;;;1.20;;
51824;SDS011;37879;52.986;6.282;2023-08-08T05:14:01;5.57;;;1.60;;
51824;SDS011;37879;52.986;6.282;2023-08-08T05:16:27;3.53;;;1.50;;
51824;SDS011;37879;52.986;6.282;2023-08-08T05:18:53;7.85;;;1.40;;
51824;SDS011;37879;52.986;6.282;2023-08-08T05:21:19;3.50;;;1.00;;
51824;SDS011;37879;52.986;6.282;2023-08-08T05:23:44;2.63;;;1.20;;
51824;SDS011;37879;52.986;6.282;2023-08-08T05:26:10;2.15;;;0.93;;
51824;SDS011;37879;52.986;6.282;2023-08-08T05:28:36;2.75;;;0.98;;
51824;SDS011;37879;52.986;6.282;2023-08-08T05:31:02;3.42;;;0.80;;
51824;SDS011;37879;52.986;6.282;2023-08-08T05:33:27;3.35;;;1.27;;
51824;SDS011;37879;52.986;6.282;2023-08-08T05:35:53;3.78;;;1.25;;
51824;SDS011;37879;52.986;6.282;2023-08-08T05:38:18;2.80;;;1.00;;
51824;SDS011;37879;52.986;6.282;2023-08-08T05:40:44;3.53;;;1.20;;
51824;SDS011;37879;52.986;6.282;2023-08-08T05:43:10;5.30;;;1.60;;
51824;SDS011;37879;52.986;6.282;2023-08-08T05:45:35;4.40;;;1.17;;
51824;SDS011;37879;52.986;6.282;2023-08-08T05:48:01;6.38;;;1.90;;
51824;SDS011;37879;52.986;6.282;2023-08-08T05:50:27;3.47;;;1.10;;
51824;SDS011;37879;52.986;6.282;2023-08-08T05:52:53;2.67;;;1.00;;
51824;SDS011;37879;52.986;6.282;2023-08-08T05:55:18;6.13;;;1.38;;
51824;SDS011;37879;52.986;6.282;2023-08-08T05:57:44;3.17;;;0.98;;
51824;SDS011;37879;52.986;6.282;2023-08-08T06:00:10;4.30;;;1.30;;
51824;SDS011;37879;52.986;6.282;2023-08-08T06:02:37;6.13;;;1.05;;
51824;SDS011;37879;52.986;6.282;2023-08-08T06:05:03;4.72;;;1.10;;
51824;SDS011;37879;52.986;6.282;2023-08-08T06:07:29;5.72;;;1.13;;
51824;SDS011;37879;52.986;6.282;2023-08-08T06:09:55;3.15;;;1.00;;
51824;SDS011;37879;52.986;6.282;2023-08-08T06:12:21;4.25;;;0.85;;
51824;SDS011;37879;52.986;6.282;2023-08-08T06:14:46;3.05;;;0.90;;
51824;SDS011;37879;52.986;6.282;2023-08-08T06:17:12;3.92;;;1.20;;
51824;SDS011;37879;52.986;6.282;2023-08-08T06:19:38;2.80;;;0.77;;
51824;SDS011;37879;52.986;6.282;2023-08-08T06:22:03;6.63;;;1.38;;
51824;SDS011;37879;52.986;6.282;2023-08-08T06:24:29;2.58;;;0.77;;
51824;SDS011;37879;52.986;6.282;2023-08-08T06:26:55;6.70;;;1.50;;
51824;SDS011;37879;52.986;6.282;2023-08-08T06:29:21;3.42;;;1.20;;
51824;SDS011;37879;52.986;6.282;2023-08-08T06:31:46;5.55;;;1.00;;
51824;SDS011;37879;52.986;6.282;2023-08-08T06:34:12;5.05;;;1.38;;
51824;SDS011;37879;52.986;6.282;2023-08-08T06:36:38;4.00;;;1.27;;
51824;SDS011;37879;52.986;6.282;2023-08-08T06:39:03;4.18;;;1.48;;
51824;SDS011;37879;52.986;6.282;2023-08-08T06:41:30;5.82;;;1.13;;
51824;SDS011;37879;52.986;6.282;2023-08-08T06:43:56;3.13;;;0.93;;
51824;SDS011;37879;52.986;6.282;2023-08-08T06:46:22;6.38;;;2.05;;
51824;SDS011;37879;52.986;6.282;2023-08-08T06:48:49;4.20;;;1.15;;
51824;SDS011;37879;52.986;6.282;2023-08-08T06:51:18;3.83;;;1.00;;
51824;SDS011;37879;52.986;6.282;2023-08-08T06:53:43;5.50;;;1.00;;
51824;SDS011;37879;52.986;6.282;2023-08-08T06:56:09;8.75;;;1.25;;
51824;SDS011;37879;52.986;6.282;2023-08-08T06:58:35;3.53;;;1.10;;
51824;SDS011;37879;52.986;6.282;2023-08-08T07:01:00;3.60;;;1.00;;
51824;SDS011;37879;52.986;6.282;2023-08-08T07:03:26;6.15;;;1.10;;
51824;SDS011;37879;52.986;6.282;2023-08-08T07:05:52;3.28;;;0.75;;
51824;SDS011;37879;52.986;6.282;2023-08-08T07:08:18;3.60;;;1.23;;
51824;SDS011;37879;52.986;6.282;2023-08-08T07:10:44;4.28;;;0.80;;
51824;SDS011;37879;52.986;6.282;2023-08-08T07:13:10;1.92;;;0.70;;
51824;SDS011;37879;52.986;6.282;2023-08-08T07:15:36;3.65;;;0.90;;
51824;SDS011;37879;52.986;6.282;2023-08-08T07:18:02;4.97;;;0.98;;
51824;SDS011;37879;52.986;6.282;2023-08-08T07:20:28;5.00;;;1.10;;
51824;SDS011;37879;52.986;6.282;2023-08-08T07:22:54;1.90;;;0.68;;
51824;SDS011;37879;52.986;6.282;2023-08-08T07:25:19;3.42;;;0.80;;
51824;SDS011;37879;52.986;6.282;2023-08-08T07:27:45;4.18;;;0.93;;
51824;SDS011;37879;52.986;6.282;2023-08-08T07:30:11;3.08;;;0.80;;
51824;SDS011;37879;52.986;6.282;2023-08-08T07:32:37;3.30;;;1.00;;
51824;SDS011;37879;52.986;6.282;2023-08-08T07:35:03;6.32;;;1.30;;
51824;SDS011;37879;52.986;6.282;2023-08-08T07:37:31;4.72;;;1.13;;
51824;SDS011;37879;52.986;6.282;2023-08-08T07:39:57;7.07;;;1.40;;
51824;SDS011;37879;52.986;6.282;2023-08-08T07:42:23;3.55;;;0.50;;
51824;SDS011;37879;52.986;6.282;2023-08-08T07:44:49;5.55;;;1.10;;
51824;SDS011;37879;52.986;6.282;2023-08-08T07:47:14;4.38;;;0.82;;
51824;SDS011;37879;52.986;6.282;2023-08-08T07:49:40;3.90;;;1.35;;
51824;SDS011;37879;52.986;6.282;2023-08-08T07:52:06;2.83;;;0.70;;
51824;SDS011;37879;52.986;6.282;2023-08-08T07:54:32;3.10;;;0.63;;
51824;SDS011;37879;52.986;6.282;2023-08-08T07:56:59;2.67;;;0.60;;
51824;SDS011;37879;52.986;6.282;2023-08-08T07:59:25;3.00;;;0.88;;
51824;SDS011;37879;52.986;6.282;2023-08-08T08:01:50;2.22;;;0.70;;
51824;SDS011;37879;52.986;6.282;2023-08-08T08:04:17;6.63;;;1.25;;
51824;SDS011;37879;52.986;6.282;2023-08-08T08:06:42;5.55;;;1.05;;
51824;SDS011;37879;52.986;6.282;2023-08-08T08:09:08;7.80;;;1.23;;
51824;SDS011;37879;52.986;6.282;2023-08-08T08:11:33;7.05;;;1.63;;
51824;SDS011;37879;52.986;6.282;2023-08-08T08:13:59;1.38;;;0.50;;
51824;SDS011;37879;52.986;6.282;2023-08-08T08:16:25;3.80;;;1.00;;
51824;SDS011;37879;52.986;6.282;2023-08-08T08:18:51;6.38;;;1.40;;
51824;SDS011;37879;52.986;6.282;2023-08-08T08:21:16;5.05;;;1.23;;
51824;SDS011;37879;52.986;6.282;2023-08-08T08:23:45;2.50;;;0.80;;
51824;SDS011;37879;52.986;6.282;2023-08-08T08:26:11;2.92;;;1.30;;
51824;SDS011;37879;52.986;6.282;2023-08-08T08:28:37;6.22;;;1.38;;
51824;SDS011;37879;52.986;6.282;2023-08-08T08:31:05;3.58;;;1.02;;
51824;SDS011;37879;52.986;6.282;2023-08-08T08:33:31;4.97;;;1.00;;
51824;SDS011;37879;52.986;6.282;2023-08-08T08:35:57;2.83;;;1.23;;
51824;SDS011;37879;52.986;6.282;2023-08-08T08:38:23;4.45;;;1.20;;
51824;SDS011;37879;52.986;6.282;2023-08-08T08:40:48;4.63;;;1.20;;
51824;SDS011;37879;52.986;6.282;2023-08-08T08:43:15;5.28;;;1.30;;
51824;SDS011;37879;52.986;6.282;2023-08-08T08:45:42;5.72;;;1.30;;
51824;SDS011;37879;52.986;6.282;2023-08-08T08:48:10;4.13;;;1.33;;
51824;SDS011;37879;52.986;6.282;2023-08-08T08:50:36;4.68;;;1.30;;
51824;SDS011;37879;52.986;6.282;2023-08-08T08:53:04;7.00;;;1.40;;
51824;SDS011;37879;52.986;6.282;2023-08-08T08:55:30;5.05;;;1.52;;
51824;SDS011;37879;52.986;6.282;2023-08-08T08:57:56;4.88;;;1.20;;
51824;SDS011;37879;52.986;6.282;2023-08-08T09:00:21;5.45;;;1.20;;
51824;SDS011;37879;52.986;6.282;2023-08-08T09:02:48;1.92;;;0.93;;
51824;SDS011;37879;52.986;6.282;2023-08-08T09:05:14;4.28;;;1.33;;
51824;SDS011;37879;52.986;6.282;2023-08-08T09:07:43;2.42;;;1.05;;
51824;SDS011;37879;52.986;6.282;2023-08-08T09:10:08;1.38;;;0.60;;
51824;SDS011;37879;52.986;6.282;2023-08-08T09:12:34;3.33;;;1.20;;
51824;SDS011;37879;52.986;6.282;2023-08-08T09:15:01;5.03;;;1.23;;
51824;SDS011;37879;52.986;6.282;2023-08-08T09:17:29;5.15;;;1.30;;
51824;SDS011;37879;52.986;6.282;2023-08-08T09:19:56;2.65;;;1.13;;
51824;SDS011;37879;52.986;6.282;2023-08-08T09:22:23;2.53;;;0.88;;
51824;SDS011;37879;52.986;6.282;2023-08-08T09:24:50;3.67;;;1.30;;
51824;SDS011;37879;52.986;6.282;2023-08-08T09:27:15;6.00;;;2.35;;
51824;SDS011;37879;52.986;6.282;2023-08-08T09:29:42;3.92;;;1.27;;
51824;SDS011;37879;52.986;6.282;2023-08-08T09:32:08;5.35;;;1.95;;
51824;SDS011;37879;52.986;6.282;2023-08-08T09:34:34;3.72;;;1.35;;
51824;SDS011;37879;52.986;6.282;2023-08-08T09:37:00;4.13;;;1.00;;
51824;SDS011;37879;52.986;6.282;2023-08-08T09:39:26;6.95;;;1.42;;
51824;SDS011;37879;52.986;6.282;2023-08-08T09:41:53;2.58;;;0.90;;
51824;SDS011;37879;52.986;6.282;2023-08-08T09:44:24;1.73;;;0.68;;
51824;SDS011;37879;52.986;6.282;2023-08-08T09:46:51;3.38;;;0.85;;
51824;SDS011;37879;52.986;6.282;2023-08-08T09:49:17;3.45;;;0.88;;
51824;SDS011;37879;52.986;6.282;2023-08-08T09:51:43;3.30;;;1.10;;
51824;SDS011;37879;52.986;6.282;2023-08-08T09:54:09;3.28;;;1.15;;
51824;SDS011;37879;52.986;6.282;2023-08-08T09:56:35;3.10;;;0.73;;
51824;SDS011;37879;52.986;6.282;2023-08-08T09:59:02;3.97;;;1.17;;
51824;SDS011;37879;52.986;6.282;2023-08-08T10:01:30;3.10;;;0.90;;
51824;SDS011;37879;52.986;6.282;2023-08-08T10:03:56;4.13;;;1.27;;
51824;SDS011;37879;52.986;6.282;2023-08-08T10:06:23;3.83;;;1.08;;
51824;SDS011;37879;52.986;6.282;2023-08-08T10:08:49;2.20;;;0.82;;
51824;SDS011;37879;52.986;6.282;2023-08-08T10:11:15;5.13;;;1.40;;
51824;SDS011;37879;52.986;6.282;2023-08-08T10:13:48;1.88;;;0.90;;
51824;SDS011;37879;52.986;6.282;2023-08-08T10:16:16;3.95;;;1.20;;
51824;SDS011;37879;52.986;6.282;2023-08-08T10:18:44;3.95;;;0.80;;
51824;SDS011;37879;52.986;6.282;2023-08-08T10:21:33;4.65;;;0.70;;
51824;SDS011;37879;52.986;6.282;2023-08-08T10:24:02;3.58;;;0.90;;
51824;SDS011;37879;52.986;6.282;2023-08-08T10:26:32;3.17;;;1.00;;
51824;SDS011;37879;52.986;6.282;2023-08-08T10:28:59;5.95;;;1.48;;
51824;SDS011;37879;52.986;6.282;2023-08-08T10:31:27;9.35;;;1.20;;
51824;SDS011;37879;52.986;6.282;2023-08-08T10:34:02;4.40;;;1.35;;
51824;SDS011;37879;52.986;6.282;2023-08-08T10:36:48;1.92;;;0.77;;
51824;SDS011;37879;52.986;6.282;2023-08-08T10:39:16;2.50;;;1.23;;
51824;SDS011;37879;52.986;6.282;2023-08-08T10:41:46;3.40;;;1.05;;
51824;SDS011;37879;52.986;6.282;2023-08-08T10:44:13;2.75;;;0.93;;
51824;SDS011;37879;52.986;6.282;2023-08-08T10:46:46;5.65;;;1.17;;
51824;SDS011;37879;52.986;6.282;2023-08-08T10:49:11;5.03;;;1.35;;
51824;SDS011;37879;52.986;6.282;2023-08-08T10:54:18;4.10;;;1.80;;
51824;SDS011;37879;52.986;6.282;2023-08-08T10:56:50;5.38;;;1.58;;
51824;SDS011;37879;52.986;6.282;2023-08-08T10:59:22;4.40;;;1.35;;
51824;SDS011;37879;52.986;6.282;2023-08-08T11:02:01;4.60;;;1.20;;
51824;SDS011;37879;52.986;6.282;2023-08-08T11:04:28;2.72;;;1.13;;
51824;SDS011;37879;52.986;6.282;2023-08-08T11:06:55;4.72;;;1.00;;
51824;SDS011;37879;52.986;6.282;2023-08-08T11:09:21;3.00;;;1.10;;
51824;SDS011;37879;52.986;6.282;2023-08-08T11:11:48;3.53;;;0.93;;
51824;SDS011;37879;52.986;6.282;2023-08-08T11:14:17;3.78;;;1.08;;
51824;SDS011;37879;52.986;6.282;2023-08-08T11:16:46;4.95;;;1.02;;
51824;SDS011;37879;52.986;6.282;2023-08-08T11:19:14;4.50;;;1.00;;
51824;SDS011;37879;52.986;6.282;2023-08-08T11:21:41;2.72;;;0.70;;
51824;SDS011;37879;52.986;6.282;2023-08-08T11:24:08;6.07;;;1.35;;
51824;SDS011;37879;52.986;6.282;2023-08-08T11:26:35;3.05;;;0.90;;
51824;SDS011;37879;52.986;6.282;2023-08-08T11:29:02;3.42;;;1.15;;
51824;SDS011;37879;52.986;6.282;2023-08-08T11:31:30;1.65;;;0.80;;
51824;SDS011;37879;52.986;6.282;2023-08-08T11:33:58;3.63;;;1.20;;
51824;SDS011;37879;52.986;6.282;2023-08-08T11:36:24;6.28;;;0.70;;
51824;SDS011;37879;52.986;6.282;2023-08-08T11:38:58;5.47;;;1.25;;
51824;SDS011;37879;52.986;6.282;2023-08-08T11:41:28;4.72;;;0.80;;
51824;SDS011;37879;52.986;6.282;2023-08-08T11:43:54;3.33;;;0.88;;
51824;SDS011;37879;52.986;6.282;2023-08-08T11:46:24;2.60;;;0.80;;
51824;SDS011;37879;52.986;6.282;2023-08-08T11:48:51;6.22;;;1.15;;
51824;SDS011;37879;52.986;6.282;2023-08-08T11:51:17;5.85;;;1.50;;
51824;SDS011;37879;52.986;6.282;2023-08-08T11:53:49;4.13;;;1.20;;
51824;SDS011;37879;52.986;6.282;2023-08-08T11:56:18;7.43;;;1.47;;
51824;SDS011;37879;52.986;6.282;2023-08-08T11:58:45;2.78;;;1.02;;
51824;SDS011;37879;52.986;6.282;2023-08-08T12:01:11;3.20;;;0.82;;
51824;SDS011;37879;52.986;6.282;2023-08-08T12:03:39;3.65;;;1.05;;
51824;SDS011;37879;52.986;6.282;2023-08-08T12:06:14;3.65;;;0.80;;
51824;SDS011;37879;52.986;6.282;2023-08-08T12:08:41;3.65;;;1.05;;
51824;SDS011;37879;52.986;6.282;2023-08-08T12:11:09;2.83;;;0.80;;
51824;SDS011;37879;52.986;6.282;2023-08-08T12:13:36;2.70;;;0.60;;
51824;SDS011;37879;52.986;6.282;2023-08-08T12:16:05;5.13;;;0.88;;
51824;SDS011;37879;52.986;6.282;2023-08-08T12:18:31;3.83;;;0.80;;
51824;SDS011;37879;52.986;6.282;2023-08-08T12:20:57;3.30;;;0.82;;
51824;SDS011;37879;52.986;6.282;2023-08-08T12:23:24;3.53;;;0.73;;
51824;SDS011;37879;52.986;6.282;2023-08-08T12:25:52;5.05;;;1.05;;
51824;SDS011;37879;52.986;6.282;2023-08-08T12:28:18;1.85;;;0.77;;
51824;SDS011;37879;52.986;6.282;2023-08-08T12:30:44;3.78;;;0.80;;
51824;SDS011;37879;52.986;6.282;2023-08-08T12:33:10;5.97;;;0.98;;
51824;SDS011;37879;52.986;6.282;2023-08-08T12:35:35;2.28;;;0.70;;
51824;SDS011;37879;52.986;6.282;2023-08-08T12:38:01;3.17;;;1.35;;
51824;SDS011;37879;52.986;6.282;2023-08-08T12:40:28;3.50;;;1.02;;
51824;SDS011;37879;52.986;6.282;2023-08-08T12:42:54;4.75;;;1.13;;
51824;SDS011;37879;52.986;6.282;2023-08-08T12:45:20;3.95;;;1.58;;
51824;SDS011;37879;52.986;6.282;2023-08-08T12:47:46;2.70;;;1.02;;
51824;SDS011;37879;52.986;6.282;2023-08-08T12:50:12;2.60;;;0.95;;
51824;SDS011;37879;52.986;6.282;2023-08-08T12:52:38;2.70;;;0.95;;
51824;SDS011;37879;52.986;6.282;2023-08-08T12:55:04;4.53;;;1.08;;
51824;SDS011;37879;52.986;6.282;2023-08-08T12:57:31;5.80;;;1.30;;
51824;SDS011;37879;52.986;6.282;2023-08-08T12:59:56;3.50;;;1.10;;
51824;SDS011;37879;52.986;6.282;2023-08-08T13:02:22;3.83;;;1.10;;
51824;SDS011;37879;52.986;6.282;2023-08-08T13:04:48;3.60;;;1.23;;
51824;SDS011;37879;52.986;6.282;2023-08-08T13:07:13;6.28;;;1.17;;
51824;SDS011;37879;52.986;6.282;2023-08-08T13:09:39;7.38;;;1.55;;
51824;SDS011;37879;52.986;6.282;2023-08-08T13:12:05;2.85;;;0.80;;
51824;SDS011;37879;52.986;6.282;2023-08-08T13:14:31;3.17;;;1.33;;
51824;SDS011;37879;52.986;6.282;2023-08-08T13:16:57;5.50;;;1.42;;
51824;SDS011;37879;52.986;6.282;2023-08-08T13:19:22;4.32;;;1.05;;
51824;SDS011;37879;52.986;6.282;2023-08-08T13:21:50;4.15;;;0.90;;
51824;SDS011;37879;52.986;6.282;2023-08-08T13:24:17;3.72;;;1.02;;
51824;SDS011;37879;52.986;6.282;2023-08-08T13:26:43;3.58;;;1.17;;
51824;SDS011;37879;52.986;6.282;2023-08-08T13:29:09;3.33;;;1.00;;
51824;SDS011;37879;52.986;6.282;2023-08-08T13:31:34;4.65;;;1.25;;
51824;SDS011;37879;52.986;6.282;2023-08-08T13:34:00;2.92;;;1.25;;
51824;SDS011;37879;52.986;6.282;2023-08-08T13:36:26;4.47;;;1.23;;
51824;SDS011;37879;52.986;6.282;2023-08-08T13:38:51;2.13;;;0.80;;
51824;SDS011;37879;52.986;6.282;2023-08-08T13:41:17;2.97;;;0.60;;
51824;SDS011;37879;52.986;6.282;2023-08-08T13:43:43;4.97;;;0.82;;
51824;SDS011;37879;52.986;6.282;2023-08-08T13:46:09;3.60;;;0.90;;
51824;SDS011;37879;52.986;6.282;2023-08-08T13:48:35;3.97;;;0.85;;
51824;SDS011;37879;52.986;6.282;2023-08-08T13:51:01;4.00;;;1.02;;
51824;SDS011;37879;52.986;6.282;2023-08-08T13:53:28;2.60;;;1.02;;
51824;SDS011;37879;52.986;6.282;2023-08-08T13:55:54;6.30;;;1.00;;
51824;SDS011;37879;52.986;6.282;2023-08-08T13:58:20;6.40;;;1.02;;
51824;SDS011;37879;52.986;6.282;2023-08-08T14:00:49;7.10;;;1.90;;
51824;SDS011;37879;52.986;6.282;2023-08-08T14:03:15;3.78;;;1.00;;
51824;SDS011;37879;52.986;6.282;2023-08-08T14:05:40;2.92;;;0.90;;
51824;SDS011;37879;52.986;6.282;2023-08-08T14:08:06;4.82;;;1.38;;
51824;SDS011;37879;52.986;6.282;2023-08-08T14:10:32;4.28;;;1.33;;
51824;SDS011;37879;52.986;6.282;2023-08-08T14:12:57;4.93;;;1.45;;
51824;SDS011;37879;52.986;6.282;2023-08-08T14:15:23;4.10;;;1.17;;
51824;SDS011;37879;52.986;6.282;2023-08-08T14:17:49;4.03;;;0.85;;
51824;SDS011;37879;52.986;6.282;2023-08-08T14:20:14;3.97;;;1.13;;
51824;SDS011;37879;52.986;6.282;2023-08-08T14:22:43;4.40;;;1.27;;
51824;SDS011;37879;52.986;6.282;2023-08-08T14:25:10;4.22;;;1.10;;
51824;SDS011;37879;52.986;6.282;2023-08-08T14:27:36;5.03;;;1.13;;
51824;SDS011;37879;52.986;6.282;2023-08-08T14:30:02;3.53;;;0.80;;
51824;SDS011;37879;52.986;6.282;2023-08-08T14:32:29;3.72;;;0.75;;
51824;SDS011;37879;52.986;6.282;2023-08-08T14:34:54;4.55;;;1.10;;
51824;SDS011;37879;52.986;6.282;2023-08-08T14:37:20;3.97;;;0.88;;
51824;SDS011;37879;52.986;6.282;2023-08-08T14:39:46;4.95;;;0.98;;
51824;SDS011;37879;52.986;6.282;2023-08-08T14:42:12;3.28;;;1.30;;
51824;SDS011;37879;52.986;6.282;2023-08-08T14:44:38;8.95;;;1.77;;
51824;SDS011;37879;52.986;6.282;2023-08-08T14:47:03;5.63;;;1.52;;
51824;SDS011;37879;52.986;6.282;2023-08-08T14:49:29;2.53;;;0.80;;